sensor_id;sensor_type;location;lat;lon;timestamp;temperature;humidity
40253;DHT22;25972;51.854;4.534;2023-07-29T00:00:06;17.30;99.90
40253;DHT22;25972;51.854;4.534;2023-07-29T00:02:38;17.30;99.90
40253;DHT22;25972;51.854;4.534;2023-07-29T00:05:05;17.30;99.90
40253;DHT22;25972;51.854;4.534;2023-07-29T00:07:31;17.30;99.90
40253;DHT22;25972;51.854;4.534;2023-07-29T00:09:57;17.30;99.90
40253;DHT22;25972;51.854;4.534;2023-07-29T00:12:24;17.30;99.90
40253;DHT22;25972;51.854;4.534;2023-07-29T00:14:50;17.30;99.90
40253;DHT22;25972;51.854;4.534;2023-07-29T00:17:18;17.30;99.90
40253;DHT22;25972;51.854;4.534;2023-07-29T00:19:45;17.40;99.90
40253;DHT22;25972;51.854;4.534;2023-07-29T00:22:12;17.40;99.90
40253;DHT22;25972;51.854;4.534;2023-07-29T00:24:39;17.40;99.90
40253;DHT22;25972;51.854;4.534;2023-07-29T00:27:05;17.30;99.90
40253;DHT22;25972;51.854;4.534;2023-07-29T00:29:31;17.40;99.90
40253;DHT22;25972;51.854;4.534;2023-07-29T00:31:58;17.40;99.90
40253;DHT22;25972;51.854;4.534;2023-07-29T00:34:25;17.40;99.90
40253;DHT22;25972;51.854;4.534;2023-07-29T00:36:51;17.40;99.90
40253;DHT22;25972;51.854;4.534;2023-07-29T00:39:19;17.40;99.90
40253;DHT22;25972;51.854;4.534;2023-07-29T00:41:46;17.40;99.90
40253;DHT22;25972;51.854;4.534;2023-07-29T00:44:12;17.30;99.90
40253;DHT22;25972;51.854;4.534;2023-07-29T00:46:38;17.40;99.90
40253;DHT22;25972;51.854;4.534;2023-07-29T00:49:06;17.40;99.90
40253;DHT22;25972;51.854;4.534;2023-07-29T00:51:34;17.30;99.90
40253;DHT22;25972;51.854;4.534;2023-07-29T00:54:00;17.30;99.90
40253;DHT22;25972;51.854;4.534;2023-07-29T00:56:26;17.30;99.90
40253;DHT22;25972;51.854;4.534;2023-07-29T00:58:53;17.30;99.90
40253;DHT22;25972;51.854;4.534;2023-07-29T01:01:24;17.30;99.90
40253;DHT22;25972;51.854;4.534;2023-07-29T01:03:51;17.30;99.90
40253;DHT22;25972;51.854;4.534;2023-07-29T01:06:23;17.20;99.90
40253;DHT22;25972;51.854;4.534;2023-07-29T01:08:57;17.20;99.90
40253;DHT22;25972;51.854;4.534;2023-07-29T01:11:34;17.20;99.90
40253;DHT22;25972;51.854;4.534;2023-07-29T01:14:09;17.20;99.90
40253;DHT22;25972;51.854;4.534;2023-07-29T01:16:49;17.10;99.90
40253;DHT22;25972;51.854;4.534;2023-07-29T01:19:34;17.20;99.90
40253;DHT22;25972;51.854;4.534;2023-07-29T01:22:04;17.10;99.90
40253;DHT22;25972;51.854;4.534;2023-07-29T01:24:32;17.10;99.90
40253;DHT22;25972;51.854;4.534;2023-07-29T01:26:58;17.10;99.90
40253;DHT22;25972;51.854;4.534;2023-07-29T01:29:24;17.10;99.90
40253;DHT22;25972;51.854;4.534;2023-07-29T01:31:54;17.10;99.90
40253;DHT22;25972;51.854;4.534;2023-07-29T01:34:26;17.10;99.90
40253;DHT22;25972;51.854;4.534;2023-07-29T01:36:54;17.00;99.90
40253;DHT22;25972;51.854;4.534;2023-07-29T01:39:23;17.10;99.90
40253;DHT22;25972;51.854;4.534;2023-07-29T01:41:52;17.00;99.90
40253;DHT22;25972;51.854;4.534;2023-07-29T01:44:19;17.00;99.90
40253;DHT22;25972;51.854;4.534;2023-07-29T01:46:47;16.90;99.90
40253;DHT22;25972;51.854;4.534;2023-07-29T01:49:13;16.90;99.90
40253;DHT22;25972;51.854;4.534;2023-07-29T01:51:39;16.90;99.90
40253;DHT22;25972;51.854;4.534;2023-07-29T01:54:06;16.90;99.90
40253;DHT22;25972;51.854;4.534;2023-07-29T01:56:32;16.90;99.90
40253;DHT22;25972;51.854;4.534;2023-07-29T01:59:00;16.90;99.90
40253;DHT22;25972;51.854;4.534;2023-07-29T02:01:27;16.80;99.90
40253;DHT22;25972;51.854;4.534;2023-07-29T02:03:54;16.80;99.90
40253;DHT22;25972;51.854;4.534;2023-07-29T02:06:21;16.80;99.90
40253;DHT22;25972;51.854;4.534;2023-07-29T02:08:47;16.80;99.90
40253;DHT22;25972;51.854;4.534;2023-07-29T02:11:14;16.80;99.90
40253;DHT22;25972;51.854;4.534;2023-07-29T02:13:40;16.80;99.90
40253;DHT22;25972;51.854;4.534;2023-07-29T02:16:08;16.80;99.90
40253;DHT22;25972;51.854;4.534;2023-07-29T02:18:34;16.80;99.90
40253;DHT22;25972;51.854;4.534;2023-07-29T02:21:00;16.80;99.90
40253;DHT22;25972;51.854;4.534;2023-07-29T02:23:26;16.80;99.90
40253;DHT22;25972;51.854;4.534;2023-07-29T02:25:54;16.80;99.90
40253;DHT22;25972;51.854;4.534;2023-07-29T02:28:21;16.80;99.90
40253;DHT22;25972;51.854;4.534;2023-07-29T02:30:47;16.80;99.90
40253;DHT22;25972;51.854;4.534;2023-07-29T02:33:35;16.80;99.90
40253;DHT22;25972;51.854;4.534;2023-07-29T02:36:01;16.80;99.90
40253;DHT22;25972;51.854;4.534;2023-07-29T02:38:28;16.80;99.90
40253;DHT22;25972;51.854;4.534;2023-07-29T02:40:54;16.70;99.90
40253;DHT22;25972;51.854;4.534;2023-07-29T02:43:20;16.70;99.90
40253;DHT22;25972;51.854;4.534;2023-07-29T02:45:48;16.70;99.90
40253;DHT22;25972;51.854;4.534;2023-07-29T02:48:14;16.70;99.90
40253;DHT22;25972;51.854;4.534;2023-07-29T02:50:42;16.70;99.90
40253;DHT22;25972;51.854;4.534;2023-07-29T02:53:09;16.70;99.90
40253;DHT22;25972;51.854;4.534;2023-07-29T02:55:35;16.70;99.90
40253;DHT22;25972;51.854;4.534;2023-07-29T02:58:01;16.70;99.90
40253;DHT22;25972;51.854;4.534;2023-07-29T03:00:28;16.70;99.90
40253;DHT22;25972;51.854;4.534;2023-07-29T03:02:56;16.70;99.90
40253;DHT22;25972;51.854;4.534;2023-07-29T03:05:23;16.70;99.90
40253;DHT22;25972;51.854;4.534;2023-07-29T03:07:50;16.70;99.90
40253;DHT22;25972;51.854;4.534;2023-07-29T03:10:20;16.70;99.90
40253;DHT22;25972;51.854;4.534;2023-07-29T03:12:46;16.70;99.90
40253;DHT22;25972;51.854;4.534;2023-07-29T03:15:13;16.70;99.90
40253;DHT22;25972;51.854;4.534;2023-07-29T03:17:39;16.70;99.90
40253;DHT22;25972;51.854;4.534;2023-07-29T03:20:07;16.70;99.90
40253;DHT22;25972;51.854;4.534;2023-07-29T03:22:33;16.70;99.90
40253;DHT22;25972;51.854;4.534;2023-07-29T03:25:01;16.70;99.90
40253;DHT22;25972;51.854;4.534;2023-07-29T03:27:27;16.70;99.90
40253;DHT22;25972;51.854;4.534;2023-07-29T03:29:53;16.70;99.90
40253;DHT22;25972;51.854;4.534;2023-07-29T03:32:20;16.70;99.90
40253;DHT22;25972;51.854;4.534;2023-07-29T03:34:46;16.70;99.90
40253;DHT22;25972;51.854;4.534;2023-07-29T03:37:12;16.70;99.90
40253;DHT22;25972;51.854;4.534;2023-07-29T03:39:38;16.70;99.90
40253;DHT22;25972;51.854;4.534;2023-07-29T03:42:07;16.70;99.90
40253;DHT22;25972;51.854;4.534;2023-07-29T03:44:33;16.70;99.90
40253;DHT22;25972;51.854;4.534;2023-07-29T03:46:59;16.70;99.90
40253;DHT22;25972;51.854;4.534;2023-07-29T03:49:25;16.60;99.90
40253;DHT22;25972;51.854;4.534;2023-07-29T03:51:51;16.70;99.90
40253;DHT22;25972;51.854;4.534;2023-07-29T03:54:17;16.60;99.90
40253;DHT22;25972;51.854;4.534;2023-07-29T03:56:46;16.60;99.90
40253;DHT22;25972;51.854;4.534;2023-07-29T03:59:15;16.60;99.90
40253;DHT22;25972;51.854;4.534;2023-07-29T04:01:42;16.70;99.90
40253;DHT22;25972;51.854;4.534;2023-07-29T04:04:08;16.60;99.90
40253;DHT22;25972;51.854;4.534;2023-07-29T04:06:35;16.60;99.90
40253;DHT22;25972;51.854;4.534;2023-07-29T04:09:01;16.60;99.90
40253;DHT22;25972;51.854;4.534;2023-07-29T04:11:28;16.60;99.90
40253;DHT22;25972;51.854;4.534;2023-07-29T04:13:54;16.60;99.90
40253;DHT22;25972;51.854;4.534;2023-07-29T04:16:21;16.60;99.90
40253;DHT22;25972;51.854;4.534;2023-07-29T04:18:47;16.60;99.90
40253;DHT22;25972;51.854;4.534;2023-07-29T04:21:13;16.60;99.90
40253;DHT22;25972;51.854;4.534;2023-07-29T04:23:39;16.60;99.90
40253;DHT22;25972;51.854;4.534;2023-07-29T04:26:07;16.60;99.90
40253;DHT22;25972;51.854;4.534;2023-07-29T04:28:36;16.60;99.90
40253;DHT22;25972;51.854;4.534;2023-07-29T04:31:02;16.70;99.90
40253;DHT22;25972;51.854;4.534;2023-07-29T04:33:30;16.70;99.90
40253;DHT22;25972;51.854;4.534;2023-07-29T04:35:57;16.70;99.90
40253;DHT22;25972;51.854;4.534;2023-07-29T04:38:30;16.70;99.90
40253;DHT22;25972;51.854;4.534;2023-07-29T04:40:56;16.80;99.90
40253;DHT22;25972;51.854;4.534;2023-07-29T04:43:23;16.80;99.90
40253;DHT22;25972;51.854;4.534;2023-07-29T04:45:52;16.80;99.90
40253;DHT22;25972;51.854;4.534;2023-07-29T04:48:19;16.80;99.90
40253;DHT22;25972;51.854;4.534;2023-07-29T04:50:46;16.90;99.90
40253;DHT22;25972;51.854;4.534;2023-07-29T04:53:13;16.90;99.90
40253;DHT22;25972;51.854;4.534;2023-07-29T04:55:41;16.90;99.90
40253;DHT22;25972;51.854;4.534;2023-07-29T04:58:07;16.90;99.90
40253;DHT22;25972;51.854;4.534;2023-07-29T05:00:35;17.00;99.90
40253;DHT22;25972;51.854;4.534;2023-07-29T05:03:03;17.00;99.90
40253;DHT22;25972;51.854;4.534;2023-07-29T05:05:29;17.00;99.90
40253;DHT22;25972;51.854;4.534;2023-07-29T05:07:58;17.10;99.90
40253;DHT22;25972;51.854;4.534;2023-07-29T05:10:24;17.10;99.90
40253;DHT22;25972;51.854;4.534;2023-07-29T05:12:50;17.10;99.90
40253;DHT22;25972;51.854;4.534;2023-07-29T05:15:16;17.10;99.90
40253;DHT22;25972;51.854;4.534;2023-07-29T05:17:47;17.10;99.90
40253;DHT22;25972;51.854;4.534;2023-07-29T05:20:13;17.30;99.90
40253;DHT22;25972;51.854;4.534;2023-07-29T05:22:39;17.30;99.90
40253;DHT22;25972;51.854;4.534;2023-07-29T05:25:08;17.30;99.90
40253;DHT22;25972;51.854;4.534;2023-07-29T05:27:34;17.40;99.90
40253;DHT22;25972;51.854;4.534;2023-07-29T05:30:00;17.50;99.90
40253;DHT22;25972;51.854;4.534;2023-07-29T05:32:26;17.70;99.90
40253;DHT22;25972;51.854;4.534;2023-07-29T05:34:53;18.00;99.90
40253;DHT22;25972;51.854;4.534;2023-07-29T05:37:20;18.10;99.90
40253;DHT22;25972;51.854;4.534;2023-07-29T05:39:47;18.10;99.90
40253;DHT22;25972;51.854;4.534;2023-07-29T05:42:14;18.20;99.90
40253;DHT22;25972;51.854;4.534;2023-07-29T05:44:41;18.10;99.90
40253;DHT22;25972;51.854;4.534;2023-07-29T05:47:07;18.00;99.90
40253;DHT22;25972;51.854;4.534;2023-07-29T05:49:33;17.90;99.90
40253;DHT22;25972;51.854;4.534;2023-07-29T05:51:59;17.90;99.90
40253;DHT22;25972;51.854;4.534;2023-07-29T05:54:26;17.90;99.90
40253;DHT22;25972;51.854;4.534;2023-07-29T05:56:55;17.80;99.90
40253;DHT22;25972;51.854;4.534;2023-07-29T05:59:22;17.80;99.90
40253;DHT22;25972;51.854;4.534;2023-07-29T06:01:50;17.90;99.90
40253;DHT22;25972;51.854;4.534;2023-07-29T06:04:16;17.90;99.90
40253;DHT22;25972;51.854;4.534;2023-07-29T06:06:45;17.90;99.90
40253;DHT22;25972;51.854;4.534;2023-07-29T06:09:11;18.00;99.90
40253;DHT22;25972;51.854;4.534;2023-07-29T06:11:38;18.10;99.90
40253;DHT22;25972;51.854;4.534;2023-07-29T06:14:04;18.20;99.90
40253;DHT22;25972;51.854;4.534;2023-07-29T06:16:31;18.20;99.90
40253;DHT22;25972;51.854;4.534;2023-07-29T06:18:57;18.20;99.90
40253;DHT22;25972;51.854;4.534;2023-07-29T06:21:24;18.20;99.90
40253;DHT22;25972;51.854;4.534;2023-07-29T06:23:50;18.20;99.90
40253;DHT22;25972;51.854;4.534;2023-07-29T06:26:16;18.20;99.90
40253;DHT22;25972;51.854;4.534;2023-07-29T06:28:43;18.20;99.90
40253;DHT22;25972;51.854;4.534;2023-07-29T06:31:09;18.20;99.90
40253;DHT22;25972;51.854;4.534;2023-07-29T06:33:37;18.20;99.90
40253;DHT22;25972;51.854;4.534;2023-07-29T06:36:04;18.40;99.90
40253;DHT22;25972;51.854;4.534;2023-07-29T06:38:30;18.60;99.90
40253;DHT22;25972;51.854;4.534;2023-07-29T06:40:56;18.70;99.90
40253;DHT22;25972;51.854;4.534;2023-07-29T06:43:22;18.80;99.90
40253;DHT22;25972;51.854;4.534;2023-07-29T06:45:49;18.80;99.90
40253;DHT22;25972;51.854;4.534;2023-07-29T06:48:15;18.80;99.90
40253;DHT22;25972;51.854;4.534;2023-07-29T06:50:42;18.90;99.90
40253;DHT22;25972;51.854;4.534;2023-07-29T06:53:09;18.90;99.90
40253;DHT22;25972;51.854;4.534;2023-07-29T06:55:35;19.00;99.90
40253;DHT22;25972;51.854;4.534;2023-07-29T06:58:01;19.20;99.90
40253;DHT22;25972;51.854;4.534;2023-07-29T07:00:28;19.20;99.90
40253;DHT22;25972;51.854;4.534;2023-07-29T07:02:54;19.20;99.90
40253;DHT22;25972;51.854;4.534;2023-07-29T07:05:20;19.20;99.90
40253;DHT22;25972;51.854;4.534;2023-07-29T07:07:48;19.10;99.90
40253;DHT22;25972;51.854;4.534;2023-07-29T07:10:15;19.20;99.90
40253;DHT22;25972;51.854;4.534;2023-07-29T07:12:42;19.30;99.90
40253;DHT22;25972;51.854;4.534;2023-07-29T07:15:08;19.50;99.90
40253;DHT22;25972;51.854;4.534;2023-07-29T07:17:34;19.80;99.90
40253;DHT22;25972;51.854;4.534;2023-07-29T07:20:00;20.10;99.90
40253;DHT22;25972;51.854;4.534;2023-07-29T07:22:27;20.00;99.90
40253;DHT22;25972;51.854;4.534;2023-07-29T07:24:54;19.60;99.90
40253;DHT22;25972;51.854;4.534;2023-07-29T07:27:21;19.40;99.90
40253;DHT22;25972;51.854;4.534;2023-07-29T07:29:47;19.40;99.90
40253;DHT22;25972;51.854;4.534;2023-07-29T07:32:13;19.30;99.90
40253;DHT22;25972;51.854;4.534;2023-07-29T07:34:39;19.40;99.90
40253;DHT22;25972;51.854;4.534;2023-07-29T07:37:06;19.40;99.90
40253;DHT22;25972;51.854;4.534;2023-07-29T07:39:32;19.50;99.90
40253;DHT22;25972;51.854;4.534;2023-07-29T07:42:03;19.50;99.90
40253;DHT22;25972;51.854;4.534;2023-07-29T07:44:30;19.60;99.90
40253;DHT22;25972;51.854;4.534;2023-07-29T07:46:56;19.60;99.90
40253;DHT22;25972;51.854;4.534;2023-07-29T07:49:23;19.60;99.90
40253;DHT22;25972;51.854;4.534;2023-07-29T07:51:49;20.00;99.90
40253;DHT22;25972;51.854;4.534;2023-07-29T07:54:16;20.00;99.90
40253;DHT22;25972;51.854;4.534;2023-07-29T07:56:42;20.10;99.90
40253;DHT22;25972;51.854;4.534;2023-07-29T07:59:10;20.00;99.90
40253;DHT22;25972;51.854;4.534;2023-07-29T08:01:36;20.00;99.90
40253;DHT22;25972;51.854;4.534;2023-07-29T08:04:02;20.10;99.90
40253;DHT22;25972;51.854;4.534;2023-07-29T08:06:30;20.30;99.90
40253;DHT22;25972;51.854;4.534;2023-07-29T08:08:59;20.40;99.90
40253;DHT22;25972;51.854;4.534;2023-07-29T08:11:26;20.70;99.90
40253;DHT22;25972;51.854;4.534;2023-07-29T08:13:52;20.90;99.90
40253;DHT22;25972;51.854;4.534;2023-07-29T08:16:20;21.10;99.90
40253;DHT22;25972;51.854;4.534;2023-07-29T08:18:46;21.00;99.90
40253;DHT22;25972;51.854;4.534;2023-07-29T08:21:13;21.30;99.90
40253;DHT22;25972;51.854;4.534;2023-07-29T08:23:39;21.50;99.90
40253;DHT22;25972;51.854;4.534;2023-07-29T08:26:06;21.50;99.90
40253;DHT22;25972;51.854;4.534;2023-07-29T08:28:34;21.20;99.90
40253;DHT22;25972;51.854;4.534;2023-07-29T08:31:00;21.30;99.90
40253;DHT22;25972;51.854;4.534;2023-07-29T08:33:31;21.40;99.90
40253;DHT22;25972;51.854;4.534;2023-07-29T08:35:59;21.30;99.90
40253;DHT22;25972;51.854;4.534;2023-07-29T08:38:26;21.40;99.90
40253;DHT22;25972;51.854;4.534;2023-07-29T08:40:58;21.50;99.90
40253;DHT22;25972;51.854;4.534;2023-07-29T08:43:29;21.60;99.90
40253;DHT22;25972;51.854;4.534;2023-07-29T08:45:59;21.70;99.90
40253;DHT22;25972;51.854;4.534;2023-07-29T08:48:32;21.60;99.90
40253;DHT22;25972;51.854;4.534;2023-07-29T08:51:03;21.40;99.90
40253;DHT22;25972;51.854;4.534;2023-07-29T08:53:30;21.30;99.90
40253;DHT22;25972;51.854;4.534;2023-07-29T08:55:57;21.20;99.90
40253;DHT22;25972;51.854;4.534;2023-07-29T08:58:24;21.00;99.90
40253;DHT22;25972;51.854;4.534;2023-07-29T09:00:51;20.80;99.90
40253;DHT22;25972;51.854;4.534;2023-07-29T09:03:18;20.80;99.90
40253;DHT22;25972;51.854;4.534;2023-07-29T09:05:51;20.90;99.90
40253;DHT22;25972;51.854;4.534;2023-07-29T09:08:21;20.70;99.90
40253;DHT22;25972;51.854;4.534;2023-07-29T09:10:51;20.70;99.90
40253;DHT22;25972;51.854;4.534;2023-07-29T09:13:21;20.80;99.90
40253;DHT22;25972;51.854;4.534;2023-07-29T09:15:49;20.80;99.90
40253;DHT22;25972;51.854;4.534;2023-07-29T09:18:23;20.70;99.90
40253;DHT22;25972;51.854;4.534;2023-07-29T09:20:53;20.70;99.90
40253;DHT22;25972;51.854;4.534;2023-07-29T09:23:19;20.60;99.90
40253;DHT22;25972;51.854;4.534;2023-07-29T09:25:47;20.70;99.90
40253;DHT22;25972;51.854;4.534;2023-07-29T09:28:15;20.90;99.90
40253;DHT22;25972;51.854;4.534;2023-07-29T09:30:45;21.00;99.90
40253;DHT22;25972;51.854;4.534;2023-07-29T09:33:12;21.00;99.90
40253;DHT22;25972;51.854;4.534;2023-07-29T09:35:38;21.00;99.90
40253;DHT22;25972;51.854;4.534;2023-07-29T09:38:06;20.80;99.90
40253;DHT22;25972;51.854;4.534;2023-07-29T09:40:36;20.40;99.90
40253;DHT22;25972;51.854;4.534;2023-07-29T09:43:04;20.30;99.90
40253;DHT22;25972;51.854;4.534;2023-07-29T09:45:32;20.20;99.90
40253;DHT22;25972;51.854;4.534;2023-07-29T09:47:58;20.10;99.90
40253;DHT22;25972;51.854;4.534;2023-07-29T09:50:25;20.20;99.90
40253;DHT22;25972;51.854;4.534;2023-07-29T09:52:53;20.30;99.90
40253;DHT22;25972;51.854;4.534;2023-07-29T09:55:21;20.50;99.90
40253;DHT22;25972;51.854;4.534;2023-07-29T09:57:53;20.40;99.90
40253;DHT22;25972;51.854;4.534;2023-07-29T10:00:23;20.40;99.90
40253;DHT22;25972;51.854;4.534;2023-07-29T10:02:49;20.30;99.90
40253;DHT22;25972;51.854;4.534;2023-07-29T10:05:16;20.30;99.90
40253;DHT22;25972;51.854;4.534;2023-07-29T10:07:43;20.20;99.90
40253;DHT22;25972;51.854;4.534;2023-07-29T10:10:11;20.10;99.90
40253;DHT22;25972;51.854;4.534;2023-07-29T10:12:39;20.10;99.90
40253;DHT22;25972;51.854;4.534;2023-07-29T10:15:08;20.00;99.90
40253;DHT22;25972;51.854;4.534;2023-07-29T10:17:36;20.00;99.90
40253;DHT22;25972;51.854;4.534;2023-07-29T10:20:05;19.90;99.90
40253;DHT22;25972;51.854;4.534;2023-07-29T10:22:35;19.90;99.90
40253;DHT22;25972;51.854;4.534;2023-07-29T10:25:04;19.80;99.90
40253;DHT22;25972;51.854;4.534;2023-07-29T10:27:41;19.80;99.90
40253;DHT22;25972;51.854;4.534;2023-07-29T10:30:10;19.70;99.90
40253;DHT22;25972;51.854;4.534;2023-07-29T10:32:38;19.70;99.90
40253;DHT22;25972;51.854;4.534;2023-07-29T10:35:05;19.60;99.90
40253;DHT22;25972;51.854;4.534;2023-07-29T10:37:33;19.40;99.90
40253;DHT22;25972;51.854;4.534;2023-07-29T10:39:59;19.30;99.90
40253;DHT22;25972;51.854;4.534;2023-07-29T10:42:26;19.20;99.90
40253;DHT22;25972;51.854;4.534;2023-07-29T10:44:53;19.10;99.90
40253;DHT22;25972;51.854;4.534;2023-07-29T10:47:24;19.10;99.90
40253;DHT22;25972;51.854;4.534;2023-07-29T10:49:52;19.10;99.90
40253;DHT22;25972;51.854;4.534;2023-07-29T10:52:31;19.10;99.90
40253;DHT22;25972;51.854;4.534;2023-07-29T10:55:04;19.20;99.90
40253;DHT22;25972;51.854;4.534;2023-07-29T10:57:51;19.20;99.90
40253;DHT22;25972;51.854;4.534;2023-07-29T11:00:20;19.30;99.90
40253;DHT22;25972;51.854;4.534;2023-07-29T11:02:58;19.40;99.90
40253;DHT22;25972;51.854;4.534;2023-07-29T11:05:42;19.80;99.90
40253;DHT22;25972;51.854;4.534;2023-07-29T11:08:19;20.00;99.90
40253;DHT22;25972;51.854;4.534;2023-07-29T11:10:58;20.30;99.90
40253;DHT22;25972;51.854;4.534;2023-07-29T11:13:28;20.90;99.90
40253;DHT22;25972;51.854;4.534;2023-07-29T11:15:57;20.80;99.90
40253;DHT22;25972;51.854;4.534;2023-07-29T11:18:27;20.70;99.90
40253;DHT22;25972;51.854;4.534;2023-07-29T11:20:54;20.70;99.90
40253;DHT22;25972;51.854;4.534;2023-07-29T11:23:27;20.70;99.90
40253;DHT22;25972;51.854;4.534;2023-07-29T11:25:54;20.80;99.90
40253;DHT22;25972;51.854;4.534;2023-07-29T11:28:20;20.90;99.90
40253;DHT22;25972;51.854;4.534;2023-07-29T11:30:49;21.00;99.90
40253;DHT22;25972;51.854;4.534;2023-07-29T11:33:19;21.10;99.90
40253;DHT22;25972;51.854;4.534;2023-07-29T11:35:46;21.10;99.90
40253;DHT22;25972;51.854;4.534;2023-07-29T11:38:15;20.90;99.90
40253;DHT22;25972;51.854;4.534;2023-07-29T11:40:43;20.80;99.90
40253;DHT22;25972;51.854;4.534;2023-07-29T11:43:16;20.70;99.90
40253;DHT22;25972;51.854;4.534;2023-07-29T11:45:44;20.70;99.90
40253;DHT22;25972;51.854;4.534;2023-07-29T11:48:10;20.70;99.90
40253;DHT22;25972;51.854;4.534;2023-07-29T11:50:45;20.90;99.90
40253;DHT22;25972;51.854;4.534;2023-07-29T11:53:12;21.10;99.90
40253;DHT22;25972;51.854;4.534;2023-07-29T11:55:45;21.20;99.90
40253;DHT22;25972;51.854;4.534;2023-07-29T11:58:20;21.30;99.90
40253;DHT22;25972;51.854;4.534;2023-07-29T12:00:49;21.40;99.90
40253;DHT22;25972;51.854;4.534;2023-07-29T12:03:18;21.70;99.90
40253;DHT22;25972;51.854;4.534;2023-07-29T12:05:50;21.70;99.90
40253;DHT22;25972;51.854;4.534;2023-07-29T12:08:16;21.70;99.90
40253;DHT22;25972;51.854;4.534;2023-07-29T12:10:42;21.70;99.90
40253;DHT22;25972;51.854;4.534;2023-07-29T12:13:09;21.90;99.90
40253;DHT22;25972;51.854;4.534;2023-07-29T12:15:38;22.20;99.90
40253;DHT22;25972;51.854;4.534;2023-07-29T12:18:05;22.50;99.90
40253;DHT22;25972;51.854;4.534;2023-07-29T12:20:32;22.20;99.90
40253;DHT22;25972;51.854;4.534;2023-07-29T12:23:00;22.30;99.90
40253;DHT22;25972;51.854;4.534;2023-07-29T12:25:32;22.30;99.90
40253;DHT22;25972;51.854;4.534;2023-07-29T12:28:03;22.20;99.90
40253;DHT22;25972;51.854;4.534;2023-07-29T12:30:30;22.40;99.90
40253;DHT22;25972;51.854;4.534;2023-07-29T12:33:01;22.50;99.90
40253;DHT22;25972;51.854;4.534;2023-07-29T12:35:35;22.50;99.90
40253;DHT22;25972;51.854;4.534;2023-07-29T12:38:07;22.70;99.90
40253;DHT22;25972;51.854;4.534;2023-07-29T12:40:38;22.70;99.90
40253;DHT22;25972;51.854;4.534;2023-07-29T12:43:06;23.00;99.90
40253;DHT22;25972;51.854;4.534;2023-07-29T12:45:36;23.00;99.90
40253;DHT22;25972;51.854;4.534;2023-07-29T12:48:02;23.20;99.90
40253;DHT22;25972;51.854;4.534;2023-07-29T12:50:28;23.30;99.90
40253;DHT22;25972;51.854;4.534;2023-07-29T12:52:55;23.30;99.90
40253;DHT22;25972;51.854;4.534;2023-07-29T12:55:22;23.50;99.90
40253;DHT22;25972;51.854;4.534;2023-07-29T12:57:52;23.70;99.90
40253;DHT22;25972;51.854;4.534;2023-07-29T13:00:20;23.40;99.90
40253;DHT22;25972;51.854;4.534;2023-07-29T13:02:46;23.50;99.90
40253;DHT22;25972;51.854;4.534;2023-07-29T13:05:13;23.60;99.90
40253;DHT22;25972;51.854;4.534;2023-07-29T13:07:39;23.80;99.90
40253;DHT22;25972;51.854;4.534;2023-07-29T13:10:06;23.90;99.90
40253;DHT22;25972;51.854;4.534;2023-07-29T13:12:33;23.90;99.90
40253;DHT22;25972;51.854;4.534;2023-07-29T13:14:59;23.90;99.90
40253;DHT22;25972;51.854;4.534;2023-07-29T13:17:25;24.00;99.90
40253;DHT22;25972;51.854;4.534;2023-07-29T13:19:52;24.10;99.90
40253;DHT22;25972;51.854;4.534;2023-07-29T13:22:19;24.00;99.90
40253;DHT22;25972;51.854;4.534;2023-07-29T13:24:45;24.20;99.90
40253;DHT22;25972;51.854;4.534;2023-07-29T13:27:11;24.40;99.90
40253;DHT22;25972;51.854;4.534;2023-07-29T13:29:41;24.40;93.20
40253;DHT22;25972;51.854;4.534;2023-07-29T13:32:08;24.00;20.70
40253;DHT22;25972;51.854;4.534;2023-07-29T13:34:34;23.90;12.70
40253;DHT22;25972;51.854;4.534;2023-07-29T13:37:00;23.90;19.70
40253;DHT22;25972;51.854;4.534;2023-07-29T13:39:26;23.80;7.90
40253;DHT22;25972;51.854;4.534;2023-07-29T13:41:53;23.80;6.70
40253;DHT22;25972;51.854;4.534;2023-07-29T13:44:19;23.90;9.80
40253;DHT22;25972;51.854;4.534;2023-07-29T13:46:47;24.00;7.50
40253;DHT22;25972;51.854;4.534;2023-07-29T13:49:13;24.10;15.20
40253;DHT22;25972;51.854;4.534;2023-07-29T13:51:39;24.00;1.00
40253;DHT22;25972;51.854;4.534;2023-07-29T13:54:05;24.10;1.00
40253;DHT22;25972;51.854;4.534;2023-07-29T13:56:31;24.20;1.00
40253;DHT22;25972;51.854;4.534;2023-07-29T13:58:58;24.10;1.00
40253;DHT22;25972;51.854;4.534;2023-07-29T14:01:24;24.00;1.00
40253;DHT22;25972;51.854;4.534;2023-07-29T14:03:52;23.90;1.00
40253;DHT22;25972;51.854;4.534;2023-07-29T14:06:21;23.90;1.00
40253;DHT22;25972;51.854;4.534;2023-07-29T14:08:47;23.70;1.00
40253;DHT22;25972;51.854;4.534;2023-07-29T14:11:13;24.10;1.00
40253;DHT22;25972;51.854;4.534;2023-07-29T14:13:41;24.20;1.00
40253;DHT22;25972;51.854;4.534;2023-07-29T14:16:07;24.20;1.00
40253;DHT22;25972;51.854;4.534;2023-07-29T14:18:34;24.30;1.00
40253;DHT22;25972;51.854;4.534;2023-07-29T14:21:01;24.10;1.00
40253;DHT22;25972;51.854;4.534;2023-07-29T14:23:27;24.10;1.00
40253;DHT22;25972;51.854;4.534;2023-07-29T14:25:53;24.00;1.00
40253;DHT22;25972;51.854;4.534;2023-07-29T14:28:22;24.00;1.00
40253;DHT22;25972;51.854;4.534;2023-07-29T14:30:49;23.90;1.00
40253;DHT22;25972;51.854;4.534;2023-07-29T14:33:15;23.90;1.00
40253;DHT22;25972;51.854;4.534;2023-07-29T14:35:41;23.50;1.00
40253;DHT22;25972;51.854;4.534;2023-07-29T14:38:08;23.60;1.00
40253;DHT22;25972;51.854;4.534;2023-07-29T14:40:34;23.40;1.00
40253;DHT22;25972;51.854;4.534;2023-07-29T14:43:01;23.40;1.00
40253;DHT22;25972;51.854;4.534;2023-07-29T14:45:27;23.30;1.00
40253;DHT22;25972;51.854;4.534;2023-07-29T14:47:53;23.30;1.00
40253;DHT22;25972;51.854;4.534;2023-07-29T14:50:22;23.30;1.00
40253;DHT22;25972;51.854;4.534;2023-07-29T14:52:57;23.30;1.00
40253;DHT22;25972;51.854;4.534;2023-07-29T14:55:24;23.20;1.00
40253;DHT22;25972;51.854;4.534;2023-07-29T14:57:50;23.30;1.00
40253;DHT22;25972;51.854;4.534;2023-07-29T15:00:16;23.30;1.00
40253;DHT22;25972;51.854;4.534;2023-07-29T15:02:43;23.30;3.20
40253;DHT22;25972;51.854;4.534;2023-07-29T15:05:09;23.20;15.00
40253;DHT22;25972;51.854;4.534;2023-07-29T15:07:35;23.10;24.00
40253;DHT22;25972;51.854;4.534;2023-07-29T15:10:02;23.10;41.00
40253;DHT22;25972;51.854;4.534;2023-07-29T15:12:29;23.00;57.60
40253;DHT22;25972;51.854;4.534;2023-07-29T15:14:55;22.90;84.10
40253;DHT22;25972;51.854;4.534;2023-07-29T15:17:22;22.80;96.80
40253;DHT22;25972;51.854;4.534;2023-07-29T15:19:48;22.50;99.90
40253;DHT22;25972;51.854;4.534;2023-07-29T15:22:17;22.40;99.90
40253;DHT22;25972;51.854;4.534;2023-07-29T15:24:43;22.70;99.90
40253;DHT22;25972;51.854;4.534;2023-07-29T15:27:10;22.90;99.90
40253;DHT22;25972;51.854;4.534;2023-07-29T15:29:37;23.00;99.90
40253;DHT22;25972;51.854;4.534;2023-07-29T15:32:05;23.20;99.90
40253;DHT22;25972;51.854;4.534;2023-07-29T15:34:31;23.20;99.90